createdAt,value
2022-09-12T00:00:08.257Z,15.05
2022-09-12T00:01:08.470Z,15.02
2022-09-12T00:02:08.644Z,15.04
2022-09-12T00:03:08.956Z,15.00
2022-09-12T00:04:09.036Z,14.97
2022-09-12T00:05:09.203Z,14.93
2022-09-12T00:06:09.401Z,14.93
2022-09-12T00:07:09.555Z,14.90
2022-09-12T00:08:09.723Z,14.89
2022-09-12T00:09:09.923Z,14.87
2022-09-12T00:10:10.098Z,14.86
2022-09-12T00:11:10.273Z,14.89
2022-09-12T00:12:10.437Z,14.85
2022-09-12T00:13:10.604Z,14.79
2022-09-12T00:14:10.784Z,14.78
2022-09-12T00:15:10.951Z,14.73
2022-09-12T00:16:11.170Z,14.71
2022-09-12T00:17:11.343Z,14.71
2022-09-12T00:18:11.515Z,14.71
2022-09-12T00:19:11.733Z,14.70
2022-09-12T00:20:11.904Z,14.68
2022-09-12T00:21:12.122Z,14.66
2022-09-12T00:22:12.291Z,14.66
2022-09-12T00:23:12.487Z,14.63
2022-09-12T00:24:12.689Z,14.62
2022-09-12T00:25:12.867Z,14.62
2022-09-12T00:26:13.046Z,14.61
2022-09-12T00:27:13.220Z,14.59
2022-09-12T00:28:13.393Z,14.59
2022-09-12T00:29:13.584Z,14.59
2022-09-12T00:30:13.762Z,14.59
2022-09-12T00:31:14.037Z,14.58
2022-09-12T00:32:14.328Z,14.59
2022-09-12T00:33:14.290Z,14.56
2022-09-12T00:34:14.494Z,14.55
2022-09-12T00:35:14.665Z,14.53
2022-09-12T00:36:14.854Z,14.53
2022-09-12T00:37:15.041Z,14.52
2022-09-12T00:38:15.222Z,14.52
2022-09-12T00:39:15.409Z,14.48
2022-09-12T00:40:15.649Z,14.48
2022-09-12T00:41:15.720Z,14.49
2022-09-12T00:42:15.902Z,14.45
2022-09-12T00:43:16.077Z,14.45
2022-09-12T00:44:16.264Z,14.44
2022-09-12T00:45:16.447Z,14.43
2022-09-12T00:46:16.641Z,14.43
2022-09-12T00:47:16.820Z,14.41
2022-09-12T00:48:17.009Z,14.38
2022-09-12T00:49:17.209Z,14.36
2022-09-12T00:50:17.384Z,14.33
2022-09-12T00:51:17.567Z,14.28
2022-09-12T00:52:17.739Z,14.26
2022-09-12T00:53:17.980Z,14.26
2022-09-12T00:54:18.145Z,14.25
2022-09-12T00:55:18.349Z,14.28
2022-09-12T00:56:18.536Z,14.30
2022-09-12T00:57:18.710Z,14.30
2022-09-12T00:58:18.898Z,14.26
2022-09-12T00:59:19.097Z,14.28
2022-09-12T01:00:19.278Z,14.28
2022-09-12T01:01:19.526Z,14.28
2022-09-12T01:02:19.653Z,14.28
2022-09-12T01:03:19.952Z,14.25
2022-09-12T01:04:20.018Z,14.20
2022-09-12T01:05:20.185Z,14.18
2022-09-12T01:06:20.634Z,14.15
2022-09-12T01:07:20.547Z,14.16
2022-09-12T01:08:20.728Z,14.15
2022-09-12T01:09:20.915Z,14.13
2022-09-12T01:10:21.105Z,14.12
2022-09-12T01:11:21.279Z,14.11
2022-09-12T01:12:21.465Z,14.12
2022-09-12T01:13:21.655Z,14.12
2022-09-12T01:14:21.879Z,14.11
2022-09-12T01:15:22.055Z,14.11
2022-09-12T01:16:22.278Z,14.07
2022-09-12T01:17:22.436Z,14.07
2022-09-12T01:18:22.635Z,14.05
2022-09-12T01:19:22.832Z,14.04
2022-09-12T01:20:23.022Z,14.05
2022-09-12T01:21:23.205Z,14.03
2022-09-12T01:22:23.380Z,14.05
2022-09-12T01:23:23.579Z,14.01
2022-09-12T01:24:23.771Z,13.98
2022-09-12T01:25:23.966Z,13.97
2022-09-12T01:26:24.191Z,13.94
2022-09-12T01:27:24.393Z,13.95
2022-09-12T01:28:24.569Z,13.94
2022-09-12T01:29:24.768Z,13.93
2022-09-12T01:30:24.960Z,13.93
2022-09-12T01:31:25.158Z,13.93
2022-09-12T01:32:25.379Z,13.97
2022-09-12T01:33:25.558Z,13.97
2022-09-12T01:34:25.753Z,13.94
2022-09-12T01:35:25.944Z,13.94
2022-09-12T01:36:26.121Z,13.91
2022-09-12T01:37:26.322Z,13.87
2022-09-12T01:38:26.520Z,13.85
2022-09-12T01:39:26.919Z,13.79
2022-09-12T01:40:26.881Z,13.82
2022-09-12T01:41:27.057Z,13.79
2022-09-12T01:42:27.230Z,13.75
2022-09-12T01:43:27.428Z,13.70
2022-09-12T01:44:27.696Z,13.68
2022-09-12T01:45:27.843Z,13.67
2022-09-12T01:46:27.903Z,13.67
2022-09-12T01:47:28.098Z,13.65
2022-09-12T01:48:28.270Z,13.67
2022-09-12T01:49:28.469Z,13.64
2022-09-12T01:50:28.654Z,13.67
2022-09-12T01:51:28.833Z,13.67
2022-09-12T01:52:29.010Z,13.65
2022-09-12T01:53:29.205Z,13.61
2022-09-12T01:54:29.544Z,13.60
2022-09-12T01:55:29.594Z,13.58
2022-09-12T01:56:29.766Z,13.60
2022-09-12T01:57:29.948Z,13.57
2022-09-12T01:58:30.121Z,13.54
2022-09-12T01:59:30.315Z,13.54
2022-09-12T02:00:30.498Z,13.52
2022-09-12T02:01:30.705Z,13.50
2022-09-12T02:02:30.857Z,13.49
2022-09-12T02:03:31.037Z,13.47
2022-09-12T02:04:34.266Z,13.47
2022-09-12T02:05:31.396Z,13.49
2022-09-12T02:06:31.567Z,13.49
2022-09-12T02:07:31.756Z,13.47
2022-09-12T02:08:31.967Z,13.47
2022-09-12T02:09:32.176Z,13.47
2022-09-12T02:10:32.916Z,13.47
2022-09-12T02:11:32.545Z,13.46
2022-09-12T02:12:32.739Z,13.43
2022-09-12T02:13:32.943Z,13.42
2022-09-12T02:14:33.157Z,13.39
2022-09-12T02:15:33.337Z,13.37
2022-09-12T02:16:33.543Z,13.37
2022-09-12T02:17:33.702Z,13.37
2022-09-12T02:18:33.891Z,13.36
2022-09-12T02:19:34.088Z,13.33
2022-09-12T02:20:49.615Z,13.30
2022-09-12T02:21:35.425Z,13.27
2022-09-12T02:22:34.595Z,13.26
2022-09-12T02:23:34.776Z,13.26
2022-09-12T02:24:34.982Z,13.26
2022-09-12T02:25:35.169Z,13.24
2022-09-12T02:26:35.379Z,13.23
2022-09-12T02:27:35.559Z,13.23
2022-09-12T02:28:35.820Z,13.23
2022-09-12T02:29:35.923Z,13.24
2022-09-12T02:30:36.155Z,13.26
2022-09-12T02:31:36.318Z,13.27
2022-09-12T02:32:36.499Z,13.24
2022-09-12T02:33:36.688Z,13.24
2022-09-12T02:34:36.891Z,13.26
2022-09-12T02:35:37.081Z,13.24
2022-09-12T02:36:37.281Z,13.26
2022-09-12T02:37:37.471Z,13.27
2022-09-12T02:38:37.659Z,13.26
2022-09-12T02:39:40.229Z,13.26
2022-09-12T02:40:39.088Z,13.24
2022-09-12T02:41:38.274Z,13.24
2022-09-12T02:42:38.456Z,13.23
2022-09-12T02:43:38.651Z,13.24
2022-09-12T02:44:38.861Z,13.24
2022-09-12T02:45:39.085Z,13.24
2022-09-12T02:46:39.257Z,13.23
2022-09-12T02:47:39.447Z,13.23
2022-09-12T02:48:41.436Z,13.23
2022-09-12T02:49:39.796Z,13.23
2022-09-12T02:50:39.981Z,13.23
2022-09-12T02:51:40.169Z,13.20
2022-09-12T02:52:40.349Z,13.20
2022-09-12T02:53:40.529Z,13.23
2022-09-12T02:54:40.725Z,13.23
2022-09-12T02:55:40.914Z,13.23
2022-09-12T02:56:41.092Z,13.23
2022-09-12T02:57:41.276Z,13.20
2022-09-12T02:58:41.493Z,13.20
2022-09-12T02:59:41.661Z,13.19
2022-09-12T03:00:41.848Z,13.19
2022-09-12T03:01:42.030Z,13.20
2022-09-12T03:02:42.215Z,13.21
2022-09-12T03:03:43.556Z,13.20
2022-09-12T03:04:42.595Z,13.19
2022-09-12T03:05:42.791Z,13.13
2022-09-12T03:06:42.988Z,13.13
2022-09-12T03:07:43.186Z,13.16
2022-09-12T03:08:43.411Z,13.19
2022-09-12T03:09:43.582Z,13.16
2022-09-12T03:10:43.771Z,13.11
2022-09-12T03:11:43.956Z,13.13
2022-09-12T03:12:44.147Z,13.13
2022-09-12T03:13:44.327Z,13.13
2022-09-12T03:14:44.525Z,13.13
2022-09-12T03:15:44.700Z,13.12
2022-09-12T03:16:44.923Z,13.11
2022-09-12T03:17:45.085Z,13.06
2022-09-12T03:18:45.381Z,13.08
2022-09-12T03:19:45.524Z,13.09
2022-09-12T03:20:45.713Z,13.08
2022-09-12T03:21:45.895Z,13.06
2022-09-12T03:22:49.294Z,13.05
2022-09-12T03:23:47.221Z,13.01
2022-09-12T03:24:46.408Z,12.99
2022-09-12T03:25:46.603Z,12.99
2022-09-12T03:26:46.778Z,13.01
2022-09-12T03:27:46.965Z,12.99
2022-09-12T03:28:47.308Z,12.98
2022-09-12T03:29:47.301Z,12.99
2022-09-12T03:30:47.510Z,12.98
2022-09-12T03:31:47.714Z,12.99
2022-09-12T03:32:47.900Z,12.95
2022-09-12T03:33:48.093Z,12.94
2022-09-12T03:34:48.290Z,12.93
2022-09-12T03:35:48.474Z,12.93
2022-09-12T03:36:48.663Z,12.91
2022-09-12T03:37:48.846Z,12.91
2022-09-12T03:38:49.031Z,12.91
2022-09-12T03:39:49.299Z,12.87
2022-09-12T03:40:54.075Z,12.87
2022-09-12T03:41:50.596Z,12.87
2022-09-12T03:42:49.787Z,12.87
2022-09-12T03:43:49.979Z,12.87
2022-09-12T03:44:50.179Z,12.84
2022-09-12T03:45:50.428Z,12.83
2022-09-12T03:46:50.497Z,12.81
2022-09-12T03:47:50.675Z,12.80
2022-09-12T03:48:50.880Z,12.80
2022-09-12T03:49:51.090Z,12.80
2022-09-12T03:50:51.263Z,12.78
2022-09-12T03:51:51.450Z,12.76
2022-09-12T03:52:51.628Z,12.78
2022-09-12T03:53:51.814Z,12.78
2022-09-12T03:54:52.008Z,12.78
2022-09-12T03:55:52.188Z,12.80
2022-09-12T03:56:52.389Z,12.78
2022-09-12T03:57:52.584Z,12.78
2022-09-12T03:58:52.766Z,12.80
2022-09-12T03:59:52.970Z,12.81
2022-09-12T04:00:53.221Z,12.83
2022-09-12T04:01:53.461Z,12.83
2022-09-12T04:02:53.684Z,12.78
2022-09-12T04:03:53.937Z,12.76
2022-09-12T04:04:54.166Z,12.72
2022-09-12T04:05:54.407Z,12.72
2022-09-12T04:06:54.632Z,12.72
2022-09-12T04:07:54.851Z,12.73
2022-09-12T04:08:55.095Z,12.73
2022-09-12T04:09:55.346Z,12.73
2022-09-12T04:10:55.458Z,12.75
2022-09-12T04:11:55.708Z,12.75
2022-09-12T04:12:55.943Z,12.75
2022-09-12T04:13:56.176Z,12.76
2022-09-12T04:14:56.455Z,12.78
2022-09-12T04:15:56.666Z,12.76
2022-09-12T04:16:56.860Z,12.76
2022-09-12T04:17:57.056Z,12.75
2022-09-12T04:18:57.249Z,12.76
2022-09-12T04:19:57.485Z,12.76
2022-09-12T04:20:57.670Z,12.75
2022-09-12T04:21:57.873Z,12.73
2022-09-12T04:22:58.067Z,12.72
2022-09-12T04:23:58.262Z,12.75
2022-09-12T04:24:58.458Z,12.75
2022-09-12T04:25:58.637Z,12.76
2022-09-12T04:26:58.832Z,12.76
2022-09-12T04:27:59.014Z,12.76
2022-09-12T04:28:59.214Z,12.76
2022-09-12T04:29:59.422Z,12.75
2022-09-12T04:30:59.658Z,12.75
2022-09-12T04:31:59.833Z,12.75
2022-09-12T04:33:00.034Z,12.75
2022-09-12T04:34:00.223Z,12.73
2022-09-12T04:35:00.426Z,12.73
2022-09-12T04:36:00.634Z,12.72
2022-09-12T04:37:00.822Z,12.73
2022-09-12T04:38:01.021Z,12.75
2022-09-12T04:39:01.222Z,12.73
2022-09-12T04:40:01.544Z,12.73
2022-09-12T04:41:01.659Z,12.73
2022-09-12T04:42:01.851Z,12.73
2022-09-12T04:43:02.035Z,12.73
2022-09-12T04:44:02.236Z,12.75
2022-09-12T04:45:02.477Z,12.78
2022-09-12T04:46:02.734Z,12.73
2022-09-12T04:47:02.873Z,12.73
2022-09-12T04:48:03.068Z,12.73
2022-09-12T04:49:03.260Z,12.75
2022-09-12T04:50:03.471Z,12.75
2022-09-12T04:51:03.659Z,12.73
2022-09-12T04:52:03.854Z,12.73
2022-09-12T04:53:04.044Z,12.73
2022-09-12T04:54:04.235Z,12.76
2022-09-12T04:55:04.462Z,12.75
2022-09-12T04:56:04.680Z,12.78
2022-09-12T04:57:04.869Z,12.78
2022-09-12T04:58:05.050Z,12.81
2022-09-12T04:59:05.243Z,12.83
2022-09-12T05:00:07.349Z,12.83
2022-09-12T05:01:05.650Z,12.81
2022-09-12T05:02:05.860Z,12.84
2022-09-12T05:03:05.928Z,12.81
2022-09-12T05:04:06.122Z,12.80
2022-09-12T05:05:06.322Z,12.80
2022-09-12T05:06:06.505Z,12.81
2022-09-12T05:07:06.698Z,12.84
2022-09-12T05:08:06.875Z,12.83
2022-09-12T05:09:07.059Z,12.84
2022-09-12T05:10:07.264Z,12.83
2022-09-12T05:11:07.491Z,12.84
2022-09-12T05:12:07.677Z,12.87
2022-09-12T05:13:07.870Z,12.90
2022-09-12T05:14:08.067Z,12.91
2022-09-12T05:15:08.265Z,12.94
2022-09-12T05:16:08.497Z,12.98
2022-09-12T05:17:08.675Z,12.95
2022-09-12T05:18:08.876Z,12.98
2022-09-12T05:19:09.096Z,12.98
2022-09-12T05:20:09.321Z,13.02
2022-09-12T05:21:09.515Z,13.05
2022-09-12T05:22:09.695Z,13.06
2022-09-12T05:23:09.881Z,13.11
2022-09-12T05:24:10.067Z,13.11
2022-09-12T05:25:10.293Z,13.12
2022-09-12T05:26:10.483Z,13.12
2022-09-12T05:27:10.673Z,13.13
2022-09-12T05:28:10.865Z,13.17
2022-09-12T05:29:11.065Z,13.19
2022-09-12T05:30:11.337Z,13.20
2022-09-12T05:31:19.454Z,13.23
2022-09-12T05:32:11.606Z,13.27
2022-09-12T05:33:11.815Z,13.31
2022-09-12T05:34:13.953Z,13.33
2022-09-12T05:35:12.266Z,13.39
2022-09-12T05:36:12.478Z,13.43
2022-09-12T05:37:12.664Z,13.46
2022-09-12T05:38:12.848Z,13.45
2022-09-12T05:39:13.068Z,13.49
2022-09-12T05:40:13.503Z,13.52
2022-09-12T05:41:17.078Z,13.57
2022-09-12T05:42:13.638Z,13.61
2022-09-12T05:43:13.812Z,13.61
2022-09-12T05:44:14.030Z,13.62
2022-09-12T05:45:14.270Z,13.67
2022-09-12T05:46:14.490Z,13.73
2022-09-12T05:47:14.642Z,13.79
2022-09-12T05:48:14.826Z,13.82
2022-09-12T05:49:15.023Z,13.86
2022-09-12T05:50:15.235Z,13.86
2022-09-12T05:51:15.454Z,13.89
2022-09-12T05:52:15.646Z,13.93
2022-09-12T05:53:15.845Z,13.98
2022-09-12T05:54:16.029Z,14.03
2022-09-12T05:55:16.278Z,14.07
2022-09-12T05:56:16.476Z,14.13
2022-09-12T05:57:16.683Z,14.19
2022-09-12T05:58:16.878Z,14.28
2022-09-12T05:59:17.052Z,14.33
2022-09-12T06:00:17.263Z,14.38
2022-09-12T06:01:17.481Z,14.45
2022-09-12T06:02:17.702Z,14.53
2022-09-12T06:03:17.926Z,14.59
2022-09-12T06:04:18.073Z,14.70
2022-09-12T06:05:18.241Z,14.79
2022-09-12T06:06:18.472Z,14.89
2022-09-12T06:07:18.603Z,14.97
2022-09-12T06:08:18.771Z,15.10
2022-09-12T06:09:18.982Z,15.18
2022-09-12T06:10:19.197Z,15.35
2022-09-12T06:11:19.368Z,15.45
2022-09-12T06:12:19.559Z,15.52
2022-09-12T06:13:19.742Z,15.65
2022-09-12T06:14:19.918Z,15.76
2022-09-12T06:15:20.147Z,15.85
2022-09-12T06:16:20.354Z,15.98
2022-09-12T06:17:20.423Z,16.06
2022-09-12T06:18:20.613Z,16.17
2022-09-12T06:19:20.806Z,16.29
2022-09-12T06:20:20.958Z,16.47
2022-09-12T06:21:21.122Z,16.58
2022-09-12T06:22:21.311Z,16.68
2022-09-12T06:23:21.497Z,16.79
2022-09-12T06:24:21.670Z,16.89
2022-09-12T06:25:21.841Z,16.95
2022-09-12T06:26:22.006Z,16.95
2022-09-12T06:27:22.201Z,16.97
2022-09-12T06:28:22.348Z,17.05
2022-09-12T06:29:22.527Z,17.22
2022-09-12T06:30:25.472Z,17.37
2022-09-12T06:31:22.866Z,17.37
2022-09-12T06:32:23.041Z,17.49
2022-09-12T06:33:23.208Z,17.66
2022-09-12T06:34:23.349Z,17.91
2022-09-12T06:35:23.555Z,18.16
2022-09-12T06:36:23.700Z,18.33
2022-09-12T06:37:23.874Z,18.30
2022-09-12T06:38:24.023Z,18.21
2022-09-12T06:39:24.179Z,18.36
2022-09-12T06:40:24.427Z,18.49
2022-09-12T06:41:24.448Z,18.64
2022-09-12T06:42:24.864Z,18.71
2022-09-12T06:43:24.708Z,18.79
2022-09-12T06:44:24.853Z,19.00
2022-09-12T06:45:25.030Z,19.22
2022-09-12T06:46:25.174Z,19.44
2022-09-12T06:47:25.339Z,19.57
2022-09-12T06:48:25.454Z,19.62
2022-09-12T06:49:25.605Z,19.74
2022-09-12T06:50:25.778Z,19.82
2022-09-12T06:51:25.910Z,20.00
2022-09-12T06:52:26.062Z,20.15
2022-09-12T06:53:26.211Z,20.14
2022-09-12T06:54:26.383Z,20.04
2022-09-12T06:55:27.851Z,20.22
2022-09-12T06:56:26.707Z,20.44
2022-09-12T06:57:26.881Z,20.50
2022-09-12T06:58:27.019Z,20.80
2022-09-12T06:59:27.160Z,20.90
2022-09-12T07:00:27.314Z,21.29
2022-09-12T07:01:27.521Z,21.30
2022-09-12T07:02:27.600Z,21.26
2022-09-12T07:03:27.716Z,21.47
2022-09-12T07:04:27.839Z,21.53
2022-09-12T07:05:28.019Z,21.84
2022-09-12T07:06:28.198Z,22.19
2022-09-12T07:07:28.326Z,22.40
2022-09-12T07:08:28.458Z,22.67
2022-09-12T07:09:28.593Z,22.92
2022-09-12T07:10:28.773Z,23.01
2022-09-12T07:11:28.911Z,23.04
2022-09-12T07:12:29.071Z,23.13
2022-09-12T07:13:29.194Z,22.78
2022-09-12T07:14:29.324Z,22.52
2022-09-12T07:15:29.493Z,22.78
2022-09-12T07:16:30.424Z,22.95
2022-09-12T07:17:29.695Z,23.13
2022-09-12T07:18:29.842Z,23.51
2022-09-12T07:19:29.983Z,23.91
2022-09-12T07:20:30.132Z,24.03
2022-09-12T07:21:30.297Z,24.11
2022-09-12T07:22:30.407Z,23.79
2022-09-12T07:23:30.543Z,24.10
2022-09-12T07:24:30.672Z,24.25
2022-09-12T07:25:30.800Z,24.61
2022-09-12T07:26:30.925Z,25.06
2022-09-12T07:27:31.026Z,25.49
2022-09-12T07:28:31.140Z,25.74
2022-09-12T07:29:38.336Z,25.68
2022-09-12T07:30:32.337Z,25.74
2022-09-12T07:31:31.433Z,25.68
2022-09-12T07:32:31.554Z,25.66
2022-09-12T07:33:31.673Z,25.39
2022-09-12T07:34:31.772Z,25.11
2022-09-12T07:35:31.902Z,25.34
2022-09-12T07:36:32.028Z,25.09
2022-09-12T07:37:32.142Z,25.09
2022-09-12T07:38:32.270Z,25.00
2022-09-12T07:39:32.408Z,25.31
2022-09-12T07:40:32.550Z,25.85
2022-09-12T07:41:32.664Z,26.15
2022-09-12T07:42:32.804Z,26.44
2022-09-12T07:43:33.911Z,26.55
2022-09-12T07:44:33.015Z,26.41
2022-09-12T07:45:33.108Z,26.59
2022-09-12T07:46:33.238Z,26.24
2022-09-12T07:47:33.344Z,26.01
2022-09-12T07:48:33.373Z,26.22
2022-09-12T07:49:33.462Z,26.41
2022-09-12T07:50:33.559Z,26.42
2022-09-12T07:51:33.674Z,26.71
2022-09-12T07:52:33.753Z,27.08
2022-09-12T07:53:33.856Z,27.40
2022-09-12T07:54:33.924Z,27.28
2022-09-12T07:55:34.004Z,26.89
2022-09-12T07:56:38.710Z,26.81
2022-09-12T07:57:35.157Z,26.53
2022-09-12T07:58:34.239Z,26.70
2022-09-12T07:59:52.178Z,26.74
2022-09-12T08:00:35.352Z,27.04
2022-09-12T08:01:34.640Z,27.16
2022-09-12T08:02:34.504Z,27.19
2022-09-12T08:03:34.651Z,26.56
2022-09-12T08:04:34.639Z,26.89
2022-09-12T08:05:34.717Z,27.18
2022-09-12T08:06:34.808Z,27.67
2022-09-12T08:07:34.917Z,28.15
2022-09-12T08:08:35.008Z,28.53
2022-09-12T08:09:35.063Z,28.64
2022-09-12T08:10:35.135Z,28.46
2022-09-12T08:11:35.238Z,28.50
2022-09-12T08:12:35.344Z,28.60
2022-09-12T08:13:35.470Z,28.23
2022-09-12T08:14:35.505Z,28.13
2022-09-12T08:15:35.522Z,27.72
2022-09-12T08:16:35.495Z,26.33
2022-09-12T08:17:35.567Z,26.51
2022-09-12T08:18:35.642Z,27.00
2022-09-12T08:19:35.712Z,27.37
2022-09-12T08:20:35.787Z,27.66
2022-09-12T08:21:35.874Z,27.43
2022-09-12T08:22:35.933Z,27.67
2022-09-12T08:23:36.101Z,27.25
2022-09-12T08:24:36.052Z,27.34
2022-09-12T08:25:36.130Z,27.44
2022-09-12T08:26:36.212Z,27.50
2022-09-12T08:27:36.288Z,27.73
2022-09-12T08:28:36.360Z,27.95
2022-09-12T08:29:36.447Z,27.91
2022-09-12T08:30:36.561Z,28.28
2022-09-12T08:31:36.686Z,27.95
2022-09-12T08:32:36.596Z,28.18
2022-09-12T08:33:36.659Z,27.88
2022-09-12T08:34:36.718Z,27.83
2022-09-12T08:35:36.771Z,27.82
2022-09-12T08:36:36.845Z,28.00
2022-09-12T08:37:36.891Z,28.34
2022-09-12T08:38:37.013Z,28.68
2022-09-12T08:39:36.920Z,28.83
2022-09-12T08:40:36.972Z,28.94
2022-09-12T08:41:37.040Z,28.93
2022-09-12T08:42:37.086Z,29.50
2022-09-12T08:43:37.171Z,29.74
2022-09-12T08:44:37.111Z,29.46
2022-09-12T08:45:37.206Z,29.10
2022-09-12T08:46:37.262Z,28.90
2022-09-12T08:47:37.292Z,28.86
2022-09-12T08:48:37.315Z,28.62
2022-09-12T08:49:37.852Z,28.52
2022-09-12T08:50:37.419Z,28.43
2022-09-12T08:51:37.465Z,28.46
2022-09-12T08:52:37.516Z,28.28
2022-09-12T08:53:37.556Z,28.72
2022-09-12T08:54:37.619Z,29.06
2022-09-12T08:55:37.643Z,29.27
2022-09-12T08:56:37.706Z,29.55
2022-09-12T08:57:37.731Z,29.92
2022-09-12T08:58:37.785Z,30.10
2022-09-12T08:59:37.800Z,29.65
2022-09-12T09:00:40.493Z,29.35
2022-09-12T09:01:37.930Z,29.20
2022-09-12T09:02:37.909Z,29.55
2022-09-12T09:03:37.943Z,29.28
2022-09-12T09:04:37.948Z,29.15
2022-09-12T09:05:37.987Z,29.27
2022-09-12T09:06:38.022Z,29.57
2022-09-12T09:07:38.043Z,29.76
2022-09-12T09:08:38.099Z,29.71
2022-09-12T09:09:38.101Z,29.61
2022-09-12T09:10:38.123Z,29.74
2022-09-12T09:11:38.156Z,29.61
2022-09-12T09:12:38.180Z,29.49
2022-09-12T09:13:38.194Z,29.34
2022-09-12T09:14:38.236Z,29.37
2022-09-12T09:15:38.297Z,28.93
2022-09-12T09:16:38.208Z,28.94
2022-09-12T09:17:38.224Z,29.18
2022-09-12T09:18:38.303Z,28.96
2022-09-12T09:19:38.184Z,29.07
2022-09-12T09:20:38.207Z,28.33
2022-09-12T09:21:38.221Z,28.37
2022-09-12T09:22:38.224Z,28.68
2022-09-12T09:23:38.222Z,28.75
2022-09-12T09:24:38.228Z,29.05
2022-09-12T09:25:38.250Z,28.53
2022-09-12T09:26:38.327Z,27.98
2022-09-12T09:27:40.862Z,27.66
2022-09-12T09:28:38.253Z,27.00
2022-09-12T09:29:38.273Z,26.51
2022-09-12T09:30:38.345Z,26.88
2022-09-12T09:31:38.265Z,27.38
2022-09-12T09:32:38.315Z,27.85
2022-09-12T09:33:38.340Z,28.22
2022-09-12T09:34:38.378Z,27.81
2022-09-12T09:35:38.385Z,27.19
2022-09-12T09:36:38.416Z,26.79
2022-09-12T09:37:38.452Z,27.04
2022-09-12T09:38:38.504Z,27.61
2022-09-12T09:39:38.583Z,28.38
2022-09-12T09:40:38.516Z,28.90
2022-09-12T09:41:38.533Z,28.94
2022-09-12T09:42:38.567Z,28.92
2022-09-12T09:43:38.597Z,28.50
2022-09-12T09:44:38.606Z,27.75
2022-09-12T09:45:38.640Z,26.74
2022-09-12T09:46:38.689Z,26.16
2022-09-12T09:47:38.654Z,25.93
2022-09-12T09:48:38.701Z,25.66
2022-09-12T09:49:38.780Z,25.73
2022-09-12T09:50:38.716Z,26.15
2022-09-12T09:51:38.762Z,26.70
2022-09-12T09:52:38.829Z,27.26
2022-09-12T09:53:38.878Z,27.95
2022-09-12T09:54:38.918Z,27.98
2022-09-12T09:55:38.945Z,28.40
2022-09-12T09:56:38.991Z,28.70
2022-09-12T09:57:39.047Z,28.50
2022-09-12T09:58:38.951Z,28.80
2022-09-12T09:59:38.983Z,29.24
2022-09-12T10:00:39.020Z,29.65
2022-09-12T10:01:39.106Z,30.13
2022-09-12T10:02:39.106Z,29.95
2022-09-12T10:03:39.065Z,30.27
2022-09-12T10:04:41.379Z,30.35
2022-09-12T10:05:39.025Z,30.63
2022-09-12T10:06:39.041Z,30.32
2022-09-12T10:07:39.050Z,29.35
2022-09-12T10:08:39.070Z,29.16
2022-09-12T10:09:39.064Z,29.57
2022-09-12T10:10:39.067Z,29.86
2022-09-12T10:11:42.479Z,30.38
2022-09-12T10:12:40.028Z,31.08
2022-09-12T10:13:39.005Z,31.44
2022-09-12T10:14:39.083Z,31.35
2022-09-12T10:15:38.955Z,31.59
2022-09-12T10:16:38.944Z,31.89
2022-09-12T10:17:38.941Z,31.79
2022-09-12T10:18:39.009Z,31.66
2022-09-12T10:19:38.911Z,31.52
2022-09-12T10:20:38.900Z,31.57
2022-09-12T10:21:41.192Z,31.32
2022-09-12T10:22:38.795Z,31.41
2022-09-12T10:23:38.781Z,31.60
2022-09-12T10:24:38.751Z,31.69
2022-09-12T10:25:38.726Z,31.66
2022-09-12T10:26:38.775Z,30.81
2022-09-12T10:27:38.612Z,29.92
2022-09-12T10:28:38.571Z,30.10
2022-09-12T10:29:38.568Z,30.08
2022-09-12T10:30:38.563Z,30.48
2022-09-12T10:31:38.533Z,30.43
2022-09-12T10:32:38.565Z,29.98
2022-09-12T10:33:38.427Z,29.46
2022-09-12T10:34:38.444Z,28.83
2022-09-12T10:35:38.473Z,28.19
2022-09-12T10:36:38.461Z,27.75
2022-09-12T10:37:38.459Z,27.53
2022-09-12T10:38:38.473Z,27.43
2022-09-12T10:39:38.643Z,27.60
2022-09-12T10:40:38.482Z,27.64
2022-09-12T10:41:38.488Z,27.83
2022-09-12T10:42:38.514Z,28.15
2022-09-12T10:43:38.516Z,28.06
2022-09-12T10:44:38.534Z,28.33
2022-09-12T10:45:38.606Z,27.22
2022-09-12T10:46:38.513Z,25.96
2022-09-12T10:47:38.517Z,25.74
2022-09-12T10:48:38.534Z,25.85
2022-09-12T10:49:38.571Z,25.74
2022-09-12T10:50:38.607Z,25.70
2022-09-12T10:51:38.622Z,25.34
2022-09-12T10:52:38.640Z,25.18
2022-09-12T10:53:38.686Z,25.11
2022-09-12T10:54:38.741Z,24.93
2022-09-12T10:55:38.781Z,24.93
2022-09-12T10:56:38.839Z,25.04
2022-09-12T10:57:38.895Z,25.71
2022-09-12T10:58:38.947Z,26.68
2022-09-12T10:59:39.006Z,27.47
2022-09-12T11:00:39.050Z,27.83
2022-09-12T11:01:39.151Z,28.46
2022-09-12T11:02:39.154Z,28.83
2022-09-12T11:03:39.042Z,28.90
2022-09-12T11:04:39.083Z,28.84
2022-09-12T11:05:39.144Z,28.82
2022-09-12T11:06:39.168Z,28.31
2022-09-12T11:07:39.195Z,27.58
2022-09-12T11:08:39.214Z,26.97
2022-09-12T11:09:39.248Z,26.91
2022-09-12T11:10:43.774Z,27.22
2022-09-12T11:11:40.250Z,27.53
2022-09-12T11:12:39.269Z,27.34
2022-09-12T11:13:39.297Z,27.23
2022-09-12T11:14:39.369Z,27.45
2022-09-12T11:15:39.333Z,27.66
2022-09-12T11:16:42.698Z,27.44
2022-09-12T11:17:39.926Z,27.26
2022-09-12T11:18:39.256Z,27.18
2022-09-12T11:19:39.313Z,27.22
2022-09-12T11:20:39.217Z,27.81
2022-09-12T11:21:39.231Z,28.67
2022-09-12T11:22:39.261Z,28.97
2022-09-12T11:23:39.291Z,28.90
2022-09-12T11:24:39.329Z,29.43
2022-09-12T11:25:39.291Z,29.84
2022-09-12T11:26:39.261Z,30.43
2022-09-12T11:27:39.309Z,30.51
2022-09-12T11:28:39.203Z,30.51
2022-09-12T11:29:39.191Z,30.20
2022-09-12T11:30:46.286Z,29.99
2022-09-12T11:31:40.823Z,29.59
2022-09-12T11:32:39.142Z,29.77
2022-09-12T11:33:42.837Z,29.86
2022-09-12T11:34:39.151Z,29.55
2022-09-12T11:35:39.133Z,30.02
2022-09-12T11:36:39.120Z,30.49
2022-09-12T11:37:39.122Z,30.46
2022-09-12T11:38:39.126Z,30.92
2022-09-12T11:39:39.196Z,31.44
2022-09-12T11:40:39.026Z,31.45
2022-09-12T11:41:39.035Z,30.63
2022-09-12T11:42:39.005Z,30.44
2022-09-12T11:43:38.981Z,30.26
2022-09-12T11:44:40.313Z,30.32
2022-09-12T11:45:39.014Z,30.11
2022-09-12T11:46:38.871Z,30.27
2022-09-12T11:47:38.856Z,30.02
2022-09-12T11:48:38.835Z,30.08
2022-09-12T11:49:38.805Z,30.40
2022-09-12T11:50:38.786Z,30.77
2022-09-12T11:51:38.783Z,30.55
2022-09-12T11:52:38.787Z,30.58
2022-09-12T11:53:38.768Z,30.95
2022-09-12T11:54:38.756Z,31.36
2022-09-12T11:55:38.730Z,31.82
2022-09-12T11:56:38.700Z,31.98
2022-09-12T11:57:38.682Z,31.95
2022-09-12T11:58:38.656Z,31.87
2022-09-12T11:59:38.649Z,31.85
2022-09-12T12:00:38.856Z,31.36
2022-09-12T12:01:42.866Z,30.23
2022-09-12T12:02:39.561Z,29.61
2022-09-12T12:03:38.536Z,29.00
2022-09-12T12:04:38.367Z,28.83
2022-09-12T12:05:38.368Z,29.24
2022-09-12T12:06:38.339Z,28.92
2022-09-12T12:07:41.171Z,28.65
2022-09-12T12:08:39.276Z,28.33
2022-09-12T12:09:38.289Z,27.76
2022-09-12T12:10:38.267Z,27.67
2022-09-12T12:11:38.268Z,27.66
2022-09-12T12:12:38.291Z,27.78
2022-09-12T12:13:38.148Z,27.83
2022-09-12T12:14:38.129Z,27.78
2022-09-12T12:15:38.129Z,28.09
2022-09-12T12:16:38.077Z,28.41
2022-09-12T12:17:38.067Z,29.10
2022-09-12T12:18:38.040Z,29.50
2022-09-12T12:19:38.036Z,29.07
2022-09-12T12:20:38.014Z,28.38
2022-09-12T12:21:37.996Z,28.20
2022-09-12T12:22:38.003Z,28.83
2022-09-12T12:23:38.010Z,29.16
2022-09-12T12:24:37.995Z,28.94
2022-09-12T12:25:37.981Z,28.84
2022-09-12T12:26:37.977Z,28.71
2022-09-12T12:27:37.960Z,28.62
2022-09-12T12:28:37.944Z,28.45
2022-09-12T12:29:41.515Z,28.62
2022-09-12T12:30:38.880Z,28.18
2022-09-12T12:31:37.862Z,28.31
2022-09-12T12:32:37.858Z,28.90
2022-09-12T12:33:37.848Z,29.64
2022-09-12T12:34:37.852Z,30.24
2022-09-12T12:35:37.841Z,30.39
2022-09-12T12:36:37.913Z,30.63
2022-09-12T12:37:37.813Z,30.73
2022-09-12T12:38:37.799Z,29.87
2022-09-12T12:39:37.890Z,29.43
2022-09-12T12:40:37.761Z,29.35
2022-09-12T12:41:37.787Z,28.86
2022-09-12T12:42:37.663Z,28.40
2022-09-12T12:43:37.654Z,27.98
2022-09-12T12:44:37.642Z,27.38
2022-09-12T12:45:37.647Z,27.10
2022-09-12T12:46:37.732Z,26.92
2022-09-12T12:47:37.644Z,26.71
2022-09-12T12:48:37.644Z,26.68
2022-09-12T12:49:37.649Z,26.53
2022-09-12T12:50:37.661Z,26.49
2022-09-12T12:51:37.673Z,26.45
2022-09-12T12:52:37.700Z,26.11
2022-09-12T12:53:37.724Z,25.86